Time;durP1;ratioP1;P1;durP2;ratioP2;P2;SDS_P1;SDS_P2;PMS_P1;PMS_P2;Temp;Humidity;BMP_temperature;BMP_pressure;BME280_temperature;BME280_humidity;BME280_pressure;Samples;Min_cycle;Max_cycle;Signal;HPM_P1;HPM_P2
2022/11/23 00:00:32;;;;;;;24.3;14.3;;;;;;;0.4;91;97710;;;;
2022/11/23 00:11:32;;;;;;;24.3;13.9;;;;;;;0.5;91;97710;;;;
2022/11/23 00:22:32;;;;;;;24.3;13.9;;;;;;;0.5;91.1;97710;;;;
2022/11/23 00:32:32;;;;;;;24.3;13.9;;;;;;;0.5;91.1;97710;;;;
2022/11/23 00:42:32;;;;;;;30.5;15.8;;;;;;;0.2;91.7;97710;;;;
2022/11/23 00:52:32;;;;;;;30.5;15.8;;;;;;;0.3;91.7;97720;;;;
2022/11/23 01:02:32;;;;;;;30.5;15.8;;;;;;;0.2;91.9;97720;;;;
2022/11/23 01:13:32;;;;;;;25;14.6;;;;;;;0.5;91.8;97700;;;;
2022/11/23 01:24:32;;;;;;;25;14.6;;;;;;;0.4;91.4;97710;;;;
2022/11/23 01:34:32;;;;;;;25;14.6;;;;;;;0.2;91.6;97700;;;;
2022/11/23 01:45:32;;;;;;;26.5;14.7;;;;;;;0.3;91.5;97700;;;;
2022/11/23 01:56:32;;;;;;;26.5;14.7;;;;;;;0.3;91.3;97710;;;;
2022/11/23 02:06:32;;;;;;;26.5;14.7;;;;;;;0.4;91.1;97710;;;;
2022/11/23 02:16:32;;;;;;;25.4;13.4;;;;;;;0.4;90.7;97700;;;;
2022/11/23 02:27:32;;;;;;;25.4;13.4;;;;;;;0.3;90.4;97690;;;;
2022/11/23 02:37:32;;;;;;;25.4;13.4;;;;;;;0.3;90.4;97690;;;;
2022/11/23 02:47:32;;;;;;;21.1;12.7;;;;;;;0.3;90.4;97690;;;;
2022/11/23 02:57:32;;;;;;;21.1;12.7;;;;;;;0.2;90.6;97690;;;;
2022/11/23 03:08:32;;;;;;;21.1;12.7;;;;;;;0.3;90.7;97690;;;;
2022/11/23 03:18:32;;;;;;;23.1;13.6;;;;;;;0.1;90.8;97690;;;;
2022/11/23 03:29:32;;;;;;;23.1;13.6;;;;;;;0;91.3;97690;;;;
2022/11/23 03:39:32;;;;;;;23.1;13.6;;;;;;;0.1;91.5;97690;;;;
2022/11/23 03:50:32;;;;;;;27.3;14.1;;;;;;;0;91.8;97690;;;;
2022/11/23 04:01:32;;;;;;;27.3;14.1;;;;;;;-0.2;91.8;97680;;;;
2022/11/23 04:11:32;;;;;;;24;14.6;;;;;;;-0.1;91.7;97690;;;;
2022/11/23 04:21:32;;;;;;;24;14.6;;;;;;;0;91.7;97680;;;;
2022/11/23 04:32:32;;;;;;;24;14.6;;;;;;;0.2;91.5;97680;;;;
2022/11/23 04:42:32;;;;;;;22.1;11.8;;;;;;;0.3;91.2;97690;;;;
2022/11/23 04:52:32;;;;;;;22.1;11.8;;;;;;;0.3;91;97690;;;;
2022/11/23 05:02:33;;;;;;;22.1;11.8;;;;;;;0.1;91;97670;;;;
2022/11/23 05:13:32;;;;;;;27.4;14;;;;;;;0;91.2;97680;;;;
2022/11/23 05:24:32;;;;;;;27.4;14;;;;;;;-0.1;91.5;97690;;;;
2022/11/23 05:34:33;;;;;;;27.4;14;;;;;;;0;91.5;97690;;;;
2022/11/23 05:45:32;;;;;;;23.7;14.6;;;;;;;0;91.8;97700;;;;
2022/11/23 05:55:32;;;;;;;23.7;14.6;;;;;;;-0.2;91.9;97730;;;;
2022/11/23 06:06:33;;;;;;;23.7;14.6;;;;;;;-0.2;92.3;97740;;;;
2022/11/23 06:17:32;;;;;;;28;15.4;;;;;;;-0.1;92.2;97750;;;;
2022/11/23 06:27:32;;;;;;;28;15.4;;;;;;;-0.2;92.3;97750;;;;
2022/11/23 06:38:32;;;;;;;28;15.4;;;;;;;-0.3;92.5;97750;;;;
2022/11/23 06:49:33;;;;;;;30.4;18.1;;;;;;;0;92.3;97750;;;;
2022/11/23 07:00:32;;;;;;;30.4;18.1;;;;;;;0.1;92.2;97760;;;;
2022/11/23 07:10:33;;;;;;;28.1;15.7;;;;;;;0.2;91.8;97760;;;;
2022/11/23 07:21:33;;;;;;;28.1;15.7;;;;;;;0.1;91.7;97750;;;;
2022/11/23 07:31:33;;;;;;;28.1;15.7;;;;;;;0.2;91.5;97750;;;;
2022/11/23 07:42:32;;;;;;;22;11.2;;;;;;;0.3;91.4;97750;;;;
2022/11/23 07:52:34;;;;;;;22;11.2;;;;;;;0.3;91.6;97760;;;;
2022/11/23 08:03:33;;;;;;;22;11.2;;;;;;;0.3;91.5;97750;;;;
2022/11/23 08:13:33;;;;;;;22.6;11.6;;;;;;;0.3;91.4;97740;;;;
2022/11/23 08:23:33;;;;;;;22.6;11.6;;;;;;;0.2;91.5;97730;;;;
2022/11/23 08:33:33;;;;;;;22.6;11.6;;;;;;;0.2;91.9;97750;;;;
2022/11/23 08:44:32;;;;;;;24.9;12.5;;;;;;;0.3;91.8;97760;;;;
2022/11/23 08:54:32;;;;;;;24.9;12.5;;;;;;;0.5;92;97770;;;;
2022/11/23 09:04:33;;;;;;;24.9;12.5;;;;;;;0.5;91.8;97760;;;;
2022/11/23 09:14:32;;;;;;;27.9;14.7;;;;;;;0.7;91.8;97750;;;;
2022/11/23 09:24:33;;;;;;;27.9;14.7;;;;;;;0.8;91.7;97740;;;;
2022/11/23 09:35:33;;;;;;;27.9;14.7;;;;;;;0.8;91.6;97730;;;;
2022/11/23 09:46:33;;;;;;;24.9;12.5;;;;;;;0.8;91.7;97720;;;;
2022/11/23 09:56:33;;;;;;;24.9;12.5;;;;;;;0.7;92;97720;;;;
2022/11/23 10:07:33;;;;;;;24.9;12.5;;;;;;;1;91.7;97710;;;;
2022/11/23 10:18:32;;;;;;;33.9;19.5;;;;;;;0.8;91.8;97700;;;;
2022/11/23 10:28:32;;;;;;;33.9;19.5;;;;;;;0.9;91.9;97690;;;;
2022/11/23 10:38:33;;;;;;;33.9;19.5;;;;;;;1.1;91.7;97690;;;;
2022/11/23 10:48:33;;;;;;;27.3;17.5;;;;;;;1;91.7;97690;;;;
2022/11/23 10:59:33;;;;;;;27.3;17.5;;;;;;;1.1;91.5;97690;;;;
2022/11/23 11:10:33;;;;;;;27.5;16.6;;;;;;;1;91.7;97680;;;;
2022/11/23 11:21:33;;;;;;;27.5;16.6;;;;;;;1.1;91.6;97660;;;;
2022/11/23 11:32:33;;;;;;;27.5;16.6;;;;;;;1.2;91.3;97670;;;;
2022/11/23 11:42:33;;;;;;;31.7;18;;;;;;;1.1;91.2;97670;;;;
2022/11/23 11:52:33;;;;;;;31.7;18;;;;;;;1.1;91.2;97670;;;;
2022/11/23 12:02:33;;;;;;;31.7;18;;;;;;;1.4;91.1;97670;;;;
2022/11/23 12:13:33;;;;;;;33.2;19.9;;;;;;;1.4;90.7;97670;;;;
2022/11/23 12:24:33;;;;;;;33.2;19.9;;;;;;;1.4;90.4;97680;;;;
2022/11/23 12:34:33;;;;;;;33.2;19.9;;;;;;;1.5;90.1;97670;;;;
2022/11/23 12:44:33;;;;;;;29.9;19.8;;;;;;;1.6;89.6;97670;;;;
2022/11/23 12:55:33;;;;;;;29.9;19.8;;;;;;;1.5;89.6;97690;;;;
2022/11/23 13:06:33;;;;;;;29.9;19.8;;;;;;;1.5;89.2;97680;;;;
2022/11/23 13:17:33;;;;;;;25.8;16.3;;;;;;;1.6;89.4;97690;;;;
2022/11/23 13:28:33;;;;;;;25.8;16.3;;;;;;;1.6;89.2;97700;;;;
2022/11/23 13:38:33;;;;;;;25.8;16.3;;;;;;;1.6;89.1;97700;;;;
2022/11/23 13:49:33;;;;;;;28.5;16.6;;;;;;;1.7;89.1;97690;;;;
2022/11/23 13:59:33;;;;;;;28.5;16.6;;;;;;;1.7;89;97690;;;;
2022/11/23 14:10:33;;;;;;;32.2;18.5;;;;;;;1.7;88.9;97700;;;;
2022/11/23 14:20:33;;;;;;;32.2;18.5;;;;;;;1.7;89;97690;;;;
2022/11/23 14:31:33;;;;;;;32.2;18.5;;;;;;;1.6;88.9;97700;;;;
2022/11/23 14:41:35;;;;;;;31.8;17.6;;;;;;;1.5;89;97710;;;;
2022/11/23 14:51:33;;;;;;;31.8;17.6;;;;;;;1.5;89.2;97720;;;;
2022/11/23 15:01:33;;;;;;;31.8;17.6;;;;;;;1.6;89.2;97720;;;;
2022/11/23 15:12:33;;;;;;;27.9;18.6;;;;;;;1.6;89;97720;;;;
2022/11/23 15:22:33;;;;;;;27.9;18.6;;;;;;;1.6;88.9;97730;;;;
2022/11/23 15:32:33;;;;;;;27.9;18.6;;;;;;;1.5;89;97740;;;;
2022/11/23 15:42:33;;;;;;;31.1;18;;;;;;;1.7;88.9;97740;;;;
2022/11/23 15:53:33;;;;;;;31.1;18;;;;;;;1.6;88.6;97740;;;;
2022/11/23 16:04:33;;;;;;;31.1;18;;;;;;;1.7;88.4;97740;;;;
2022/11/23 16:14:33;;;;;;;34.8;20.6;;;;;;;1.6;88.4;97740;;;;
2022/11/23 16:24:33;;;;;;;34.8;20.6;;;;;;;1.6;88.6;97740;;;;
2022/11/23 16:35:33;;;;;;;34.8;20.6;;;;;;;1.5;88.6;97760;;;;
2022/11/23 16:46:33;;;;;;;28.9;19.4;;;;;;;1.6;88.6;97770;;;;
2022/11/23 16:57:33;;;;;;;28.9;19.4;;;;;;;1.6;88.5;97750;;;;
2022/11/23 17:07:33;;;;;;;28.9;19.4;;;;;;;1.5;88.6;97770;;;;
2022/11/23 17:18:33;;;;;;;31.7;18.5;;;;;;;1.4;88.8;97780;;;;
2022/11/23 17:29:33;;;;;;;31.7;18.5;;;;;;;1.5;88.6;97780;;;;
2022/11/23 17:39:33;;;;;;;36.3;20.7;;;;;;;1.4;88.4;97790;;;;
2022/11/23 17:49:33;;;;;;;36.3;20.7;;;;;;;1.4;88.2;97780;;;;
2022/11/23 18:00:33;;;;;;;36.3;20.7;;;;;;;1.5;88.1;97770;;;;
2022/11/23 18:11:33;;;;;;;30.6;16.5;;;;;;;1.4;88.1;97780;;;;
2022/11/23 18:22:33;;;;;;;30.6;16.5;;;;;;;1.4;88.1;97790;;;;
2022/11/23 18:32:33;;;;;;;30.6;16.5;;;;;;;1.3;88.1;97770;;;;
2022/11/23 18:43:33;;;;;;;28.5;18.6;;;;;;;1.3;88.3;97770;;;;
2022/11/23 18:54:33;;;;;;;28.5;18.6;;;;;;;1.3;88.4;97780;;;;
2022/11/23 19:04:33;;;;;;;28.5;18.6;;;;;;;1.3;88.7;97770;;;;
2022/11/23 19:14:33;;;;;;;33.7;17.4;;;;;;;1.2;88.9;97770;;;;
2022/11/23 19:25:33;;;;;;;33.7;17.4;;;;;;;1.4;88.8;97780;;;;
2022/11/23 19:36:35;;;;;;;33.7;17.4;;;;;;;1.2;89;97790;;;;
2022/11/23 19:46:33;;;;;;;35;18;;;;;;;1.3;88.9;97790;;;;
2022/11/23 19:56:35;;;;;;;35;18;;;;;;;1.4;88.7;97790;;;;
2022/11/23 20:06:35;;;;;;;35;18;;;;;;;1.4;88.7;97800;;;;
2022/11/23 20:17:33;;;;;;;26.8;15.8;;;;;;;1.3;89.1;97810;;;;
2022/11/23 20:28:33;;;;;;;26.8;15.8;;;;;;;1.3;89.4;97820;;;;
2022/11/23 20:38:33;;;;;;;28.3;14.8;;;;;;;1.2;89.7;97820;;;;
2022/11/23 20:49:33;;;;;;;28.3;14.8;;;;;;;1.3;89.7;97820;;;;
2022/11/23 20:59:33;;;;;;;28.3;14.8;;;;;;;1.4;89.6;97830;;;;
2022/11/23 21:20:33;;;;;;;25.7;13.5;;;;;;;1.2;90.4;97830;;;;
2022/11/23 21:30:33;;;;;;;25.7;13.5;;;;;;;1.2;90.8;97840;;;;
2022/11/23 21:40:33;;;;;;;26.2;14.3;;;;;;;1.3;90.5;97840;;;;
2022/11/23 21:51:33;;;;;;;26.2;14.3;;;;;;;1.3;90.2;97840;;;;
2022/11/23 22:01:33;;;;;;;26.2;14.3;;;;;;;1.5;90.2;97840;;;;
2022/11/23 22:11:33;;;;;;;25.9;14;;;;;;;1.5;90.1;97840;;;;
2022/11/23 22:21:33;;;;;;;25.9;14;;;;;;;1.5;89.6;97830;;;;
2022/11/23 22:32:33;;;;;;;25.9;14;;;;;;;1.4;88.6;97830;;;;
2022/11/23 22:43:33;;;;;;;26;13.9;;;;;;;1.3;88.3;97840;;;;
2022/11/23 22:53:33;;;;;;;26;13.9;;;;;;;1.2;88;97830;;;;
2022/11/23 23:03:33;;;;;;;26;13.9;;;;;;;1.4;87.9;97830;;;;
2022/11/23 23:14:34;;;;;;;23.2;12.6;;;;;;;1.4;87.5;97830;;;;
2022/11/23 23:24:33;;;;;;;23.2;12.6;;;;;;;1.4;87.5;97820;;;;
2022/11/23 23:35:33;;;;;;;23.2;12.6;;;;;;;1.6;87.4;97820;;;;
2022/11/23 23:46:33;;;;;;;27.6;15.9;;;;;;;1.5;87.3;97830;;;;
2022/11/23 23:56:33;;;;;;;27.6;15.9;;;;;;;1.5;87.1;97830;;;;
